Time;durP1;ratioP1;P1;durP2;ratioP2;P2;SDS_P1;SDS_P2;PMS_P1;PMS_P2;Temp;Humidity;BMP_temperature;BMP_pressure;BME280_temperature;BME280_humidity;BME280_pressure;Samples;Min_cycle;Max_cycle;Signal;HPM_P1;HPM_P2
2023/12/25 00:01:18;;;;;;;5.50;3.50;;;14.70;99.90;;;;;;5032061;28;20638;-79
2023/12/25 00:03:44;;;;;;;4.90;2.10;;;14.70;99.90;;;;;;5013585;28;20596;-80
2023/12/25 00:06:10;;;;;;;2.73;1.33;;;14.70;99.90;;;;;;5013266;28;20656;-80
2023/12/25 00:08:35;;;;;;;4.03;0.87;;;14.70;99.90;;;;;;5031088;28;20264;-80
2023/12/25 00:11:01;;;;;;;1.87;0.70;;;14.70;99.90;;;;;;5014321;28;20544;-81
2023/12/25 00:13:27;;;;;;;2.67;0.70;;;14.70;99.90;;;;;;5012715;28;20573;-79
2023/12/25 00:15:52;;;;;;;1.53;0.43;;;14.70;99.90;;;;;;5039034;28;20203;-79
2023/12/25 00:18:18;;;;;;;2.40;0.50;;;14.70;99.90;;;;;;5013530;28;20177;-80
2023/12/25 00:20:44;;;;;;;1.20;0.50;;;14.70;99.90;;;;;;5005213;28;20209;-80
2023/12/25 00:23:10;;;;;;;1.40;0.50;;;14.70;99.90;;;;;;5030104;28;20178;-80
2023/12/25 00:25:36;;;;;;;1.10;0.40;;;14.70;99.90;;;;;;5037258;28;20197;-80
2023/12/25 00:28:02;;;;;;;3.67;0.50;;;14.70;99.90;;;;;;5031840;28;20982;-80
2023/12/25 00:30:28;;;;;;;1.40;0.57;;;14.70;99.90;;;;;;5013230;28;20591;-80
2023/12/25 00:32:54;;;;;;;2.10;0.60;;;14.70;99.90;;;;;;5038429;28;20595;-80
2023/12/25 00:35:20;;;;;;;1.20;0.50;;;14.70;99.90;;;;;;5013089;28;20670;-80
2023/12/25 00:37:45;;;;;;;1.07;0.40;;;14.70;99.90;;;;;;5030767;28;20584;-80
2023/12/25 00:40:11;;;;;;;1.27;0.50;;;14.70;99.90;;;;;;5030384;28;20170;-80
2023/12/25 00:42:37;;;;;;;1.43;0.60;;;14.70;99.90;;;;;;5012262;28;20193;-81
2023/12/25 00:45:03;;;;;;;1.17;0.40;;;14.60;99.90;;;;;;5030261;28;20197;-79
2023/12/25 00:47:28;;;;;;;1.20;0.40;;;14.70;99.90;;;;;;5030402;28;20220;-79
2023/12/25 00:49:54;;;;;;;1.20;0.40;;;14.70;99.90;;;;;;5012652;28;20683;-79
2023/12/25 00:52:20;;;;;;;1.20;0.50;;;14.60;99.90;;;;;;5029711;28;20166;-80
2023/12/25 00:54:46;;;;;;;1.40;0.40;;;14.60;99.90;;;;;;5020404;28;20283;-80
2023/12/25 00:57:12;;;;;;;1.40;0.40;;;14.60;99.90;;;;;;5030485;28;20588;-80
2023/12/25 00:59:38;;;;;;;1.20;0.50;;;14.60;99.90;;;;;;4996193;28;20577;-80
2023/12/25 01:02:03;;;;;;;1.70;0.90;;;14.60;99.90;;;;;;5011924;28;20224;-81
2023/12/25 01:04:29;;;;;;;1.60;0.60;;;14.60;99.90;;;;;;5016537;28;21066;-80
2023/12/25 01:06:58;;;;;;;1.20;0.50;;;14.60;99.90;;;;;;5042798;28;20246;-80
2023/12/25 01:09:24;;;;;;;1.20;0.40;;;14.60;99.90;;;;;;5034563;28;20943;-80
2023/12/25 01:11:50;;;;;;;1.10;0.40;;;14.60;99.90;;;;;;5015974;28;20237;-80
2023/12/25 01:14:16;;;;;;;1.00;0.40;;;14.60;99.90;;;;;;5016407;28;21428;-80
2023/12/25 01:16:42;;;;;;;1.13;0.40;;;14.60;99.90;;;;;;5016583;28;20239;-80
2023/12/25 01:19:07;;;;;;;1.10;0.40;;;14.60;99.90;;;;;;5042470;28;20702;-81
2023/12/25 01:21:34;;;;;;;4.30;0.47;;;14.60;99.90;;;;;;5017147;28;20659;-80
2023/12/25 01:24:00;;;;;;;1.10;0.40;;;14.60;99.90;;;;;;5033528;28;20188;-80
2023/12/25 01:26:26;;;;;;;1.83;0.40;;;14.60;99.90;;;;;;4999813;28;20651;-79
2023/12/25 01:28:52;;;;;;;1.23;0.47;;;14.60;99.90;;;;;;5016202;28;21210;-79
2023/12/25 01:31:17;;;;;;;1.00;0.33;;;14.60;99.90;;;;;;5000002;28;20620;-80
2023/12/25 01:33:43;;;;;;;2.23;0.40;;;14.60;99.90;;;;;;4999567;28;20209;-79
2023/12/25 01:36:09;;;;;;;1.10;0.40;;;14.60;99.90;;;;;;5016302;28;20237;-80
2023/12/25 01:38:35;;;;;;;1.20;0.40;;;14.60;99.90;;;;;;4999489;28;20589;-79
2023/12/25 01:41:01;;;;;;;1.03;0.37;;;14.60;99.90;;;;;;5009366;28;20204;-79
2023/12/25 01:43:27;;;;;;;1.10;0.50;;;14.60;99.90;;;;;;5041598;28;20227;-80
2023/12/25 01:45:52;;;;;;;1.83;0.43;;;14.60;99.90;;;;;;5030945;28;20616;-79
2023/12/25 01:48:18;;;;;;;1.10;0.40;;;14.60;99.90;;;;;;5038104;28;20166;-79
2023/12/25 01:50:45;;;;;;;1.20;0.40;;;14.60;99.90;;;;;;5018590;28;20207;-80
2023/12/25 01:53:11;;;;;;;1.40;0.40;;;14.60;99.90;;;;;;5034012;28;20592;-80
2023/12/25 01:55:37;;;;;;;1.40;0.50;;;14.60;99.90;;;;;;5054559;28;20634;-80
2023/12/25 01:58:03;;;;;;;1.53;0.40;;;14.60;99.90;;;;;;5016064;28;20588;-80
2023/12/25 02:00:29;;;;;;;2.07;0.40;;;14.60;99.90;;;;;;5020623;28;20173;-80
2023/12/25 02:02:56;;;;;;;1.30;0.40;;;14.60;99.90;;;;;;5038201;28;20591;-81
2023/12/25 02:05:21;;;;;;;1.10;0.50;;;14.60;99.90;;;;;;5033196;28;20231;-79
2023/12/25 02:07:49;;;;;;;3.00;0.53;;;14.60;99.90;;;;;;5046131;28;20977;-80
2023/12/25 02:10:29;;;;;;;1.10;0.40;;;14.60;99.90;;;;;;5029157;28;20614;-80
2023/12/25 02:13:02;;;;;;;1.00;0.40;;;14.60;99.90;;;;;;5030144;28;20589;-80
2023/12/25 02:15:29;;;;;;;1.10;0.40;;;14.60;99.90;;;;;;5018696;28;20607;-80
2023/12/25 02:17:55;;;;;;;1.20;0.40;;;14.60;99.90;;;;;;5027913;28;20576;-80
2023/12/25 02:20:22;;;;;;;1.10;0.40;;;14.60;99.90;;;;;;5023339;28;20600;-79
2023/12/25 02:22:49;;;;;;;1.10;0.40;;;14.60;99.90;;;;;;5017651;28;20572;-79
2023/12/25 02:25:29;;;;;;;1.10;0.40;;;14.60;99.90;;;;;;5016368;28;20750;-80
2023/12/25 02:27:55;;;;;;;1.40;0.40;;;14.60;99.90;;;;;;5034316;28;20659;-80
2023/12/25 02:30:21;;;;;;;1.10;0.40;;;14.60;99.90;;;;;;5000948;28;20592;-80
2023/12/25 02:32:47;;;;;;;1.70;0.43;;;14.70;99.90;;;;;;5016345;28;20584;-80
2023/12/25 02:35:13;;;;;;;1.07;0.40;;;14.60;99.90;;;;;;5033511;28;20679;-80
2023/12/25 02:37:39;;;;;;;1.47;0.40;;;14.60;99.90;;;;;;5014642;28;20632;-80
2023/12/25 02:40:06;;;;;;;1.50;0.40;;;14.70;99.90;;;;;;5014696;28;20637;-80
2023/12/25 02:42:31;;;;;;;1.10;0.40;;;14.70;99.90;;;;;;5014064;28;20184;-80
2023/12/25 02:44:57;;;;;;;1.23;0.40;;;14.70;99.90;;;;;;5014139;28;21248;-80
2023/12/25 02:47:23;;;;;;;1.20;0.40;;;14.70;99.90;;;;;;5014404;28;20251;-79
2023/12/25 02:49:48;;;;;;;1.20;0.40;;;14.60;99.90;;;;;;5038173;28;20196;-80
2023/12/25 02:52:14;;;;;;;1.13;0.43;;;14.70;99.90;;;;;;5039369;28;20582;-79
2023/12/25 02:54:40;;;;;;;1.47;0.40;;;14.60;99.90;;;;;;5014382;28;20190;-79
2023/12/25 02:57:06;;;;;;;1.10;0.50;;;14.60;99.90;;;;;;5022238;28;20178;-79
2023/12/25 02:59:31;;;;;;;1.00;0.40;;;14.60;99.90;;;;;;5010789;28;20184;-80
2023/12/25 03:01:57;;;;;;;1.10;0.40;;;14.60;99.90;;;;;;5029796;28;20188;-80
2023/12/25 03:04:23;;;;;;;1.73;0.50;;;14.60;99.90;;;;;;4989352;28;20177;-79
2023/12/25 03:06:49;;;;;;;1.73;0.40;;;14.60;99.90;;;;;;5022390;28;20685;-80
2023/12/25 03:09:16;;;;;;;1.00;0.40;;;14.60;99.90;;;;;;5006338;28;20181;-80
2023/12/25 03:11:43;;;;;;;1.10;0.40;;;14.60;99.90;;;;;;5019288;28;20276;-80
2023/12/25 03:14:08;;;;;;;1.30;0.40;;;14.50;99.90;;;;;;5002972;28;20581;-80
2023/12/25 03:16:34;;;;;;;1.30;0.40;;;14.50;99.90;;;;;;5019838;28;20603;-80
2023/12/25 03:19:00;;;;;;;1.10;0.50;;;14.50;99.90;;;;;;5034420;28;20212;-79
2023/12/25 03:21:26;;;;;;;1.30;0.40;;;14.40;99.90;;;;;;5015178;28;20182;-80
2023/12/25 03:23:52;;;;;;;1.10;0.40;;;14.40;99.90;;;;;;4996839;28;20604;-80
2023/12/25 03:26:17;;;;;;;1.00;0.30;;;14.40;99.90;;;;;;5047545;28;20244;-80
2023/12/25 03:28:43;;;;;;;1.07;0.40;;;14.40;99.90;;;;;;5014060;28;20181;-80
2023/12/25 03:31:09;;;;;;;1.10;0.40;;;14.40;99.90;;;;;;5031518;28;20224;-80
2023/12/25 03:33:36;;;;;;;1.10;0.40;;;14.40;99.90;;;;;;4996867;28;20517;-80
2023/12/25 03:36:03;;;;;;;2.03;0.40;;;14.40;99.90;;;;;;5032071;28;20612;-80
2023/12/25 03:38:28;;;;;;;1.10;0.40;;;14.40;99.90;;;;;;5021217;28;20592;-80
2023/12/25 03:40:54;;;;;;;1.50;0.40;;;14.40;99.90;;;;;;5013536;28;20667;-80
2023/12/25 03:43:20;;;;;;;1.03;0.40;;;14.40;99.90;;;;;;5013308;28;20177;-80
2023/12/25 03:45:46;;;;;;;1.10;0.40;;;14.40;99.90;;;;;;5023975;28;20204;-80
2023/12/25 03:48:11;;;;;;;1.27;0.40;;;14.40;99.90;;;;;;5035778;28;20628;-80
2023/12/25 03:50:37;;;;;;;1.10;0.40;;;14.40;99.90;;;;;;5025335;28;20579;-80
2023/12/25 03:53:03;;;;;;;1.57;0.50;;;14.50;99.90;;;;;;5033815;28;20174;-81
2023/12/25 03:55:31;;;;;;;1.77;0.50;;;14.50;99.90;;;;;;5009768;28;20236;-81
2023/12/25 03:57:57;;;;;;;1.10;0.40;;;14.50;99.90;;;;;;5018618;28;20177;-80
2023/12/25 04:00:23;;;;;;;1.50;0.37;;;14.50;99.90;;;;;;4997900;28;21160;-81
2023/12/25 04:02:50;;;;;;;1.10;0.50;;;14.50;99.90;;;;;;5014464;28;20192;-79
2023/12/25 04:05:17;;;;;;;1.30;0.50;;;14.50;99.90;;;;;;5015025;28;20308;-80
2023/12/25 04:07:43;;;;;;;1.10;0.43;;;14.50;99.90;;;;;;4999208;28;20724;-81
2023/12/25 04:10:10;;;;;;;1.50;0.50;;;14.50;99.90;;;;;;5017875;28;20619;-80
2023/12/25 04:12:36;;;;;;;1.30;0.50;;;14.50;99.90;;;;;;5038618;28;20670;-79
2023/12/25 04:15:03;;;;;;;1.50;0.50;;;14.50;99.90;;;;;;5031534;28;21196;-81
2023/12/25 04:17:28;;;;;;;1.80;0.50;;;14.60;99.90;;;;;;5014177;28;20263;-81
2023/12/25 04:19:54;;;;;;;1.20;0.47;;;14.50;99.90;;;;;;4998063;28;20608;-80
2023/12/25 04:22:20;;;;;;;1.30;0.50;;;14.60;99.90;;;;;;5032396;28;20260;-82
2023/12/25 04:24:46;;;;;;;1.73;0.50;;;14.60;99.90;;;;;;5014481;28;20620;-81
2023/12/25 04:27:12;;;;;;;1.37;0.47;;;14.60;99.90;;;;;;5006356;28;20251;-81
2023/12/25 04:29:44;;;;;;;1.87;0.50;;;14.60;99.90;;;;;;5014204;28;20580;-79
2023/12/25 04:32:11;;;;;;;1.87;0.50;;;14.60;99.90;;;;;;4996616;28;20591;-80
2023/12/25 04:34:37;;;;;;;1.23;0.40;;;14.60;99.90;;;;;;5014418;28;20608;-80
2023/12/25 04:37:02;;;;;;;2.67;0.40;;;14.60;99.90;;;;;;5014044;28;20643;-80
2023/12/25 04:39:28;;;;;;;1.10;0.40;;;14.70;99.90;;;;;;5001212;28;20189;-80
2023/12/25 04:41:58;;;;;;;1.30;0.50;;;14.70;99.90;;;;;;5017270;28;20596;-80
2023/12/25 04:44:23;;;;;;;1.20;0.40;;;14.70;99.90;;;;;;5000980;28;20260;-80
2023/12/25 04:46:49;;;;;;;5.13;0.50;;;14.80;99.90;;;;;;5000957;28;20735;-80
2023/12/25 04:49:19;;;;;;;1.10;0.40;;;14.80;99.90;;;;;;4984605;28;20671;-80
2023/12/25 04:51:45;;;;;;;1.20;0.50;;;14.80;99.90;;;;;;5000647;28;20583;-80
2023/12/25 04:54:11;;;;;;;2.63;0.50;;;14.80;99.90;;;;;;5000555;28;21329;-80
2023/12/25 04:56:36;;;;;;;1.10;0.50;;;14.80;99.90;;;;;;5039560;28;20180;-80
2023/12/25 04:59:02;;;;;;;1.10;0.40;;;14.80;99.90;;;;;;5045352;28;20588;-74
2023/12/25 05:01:28;;;;;;;1.73;0.40;;;14.80;99.90;;;;;;5025099;28;20188;-72
2023/12/25 05:03:54;;;;;;;1.30;0.40;;;14.90;99.90;;;;;;5040492;28;20672;-72
2023/12/25 05:06:19;;;;;;;1.10;0.40;;;14.90;99.90;;;;;;5035155;28;20738;-72
2023/12/25 05:08:45;;;;;;;1.20;0.40;;;14.80;99.90;;;;;;4997722;28;20204;-74
2023/12/25 05:11:11;;;;;;;1.20;0.47;;;14.90;99.90;;;;;;5026868;28;20831;-73
2023/12/25 05:13:37;;;;;;;1.10;0.40;;;14.80;99.90;;;;;;4999521;28;20239;-74
2023/12/25 05:16:03;;;;;;;1.30;0.50;;;14.80;99.90;;;;;;4999810;28;20284;-74
2023/12/25 05:18:29;;;;;;;1.20;0.43;;;14.80;99.90;;;;;;5016292;28;20177;-74
2023/12/25 05:20:55;;;;;;;1.20;0.40;;;14.80;99.90;;;;;;5031308;28;20583;-73
2023/12/25 05:23:21;;;;;;;1.10;0.40;;;14.80;99.90;;;;;;5042967;28;20185;-73
2023/12/25 05:25:47;;;;;;;1.70;0.40;;;14.80;99.90;;;;;;5024211;28;20205;-72
2023/12/25 05:28:12;;;;;;;1.80;0.40;;;14.80;99.90;;;;;;5033921;28;20251;-74
2023/12/25 05:30:40;;;;;;;1.20;0.50;;;14.70;99.90;;;;;;5033911;28;20588;-74
2023/12/25 05:33:06;;;;;;;1.10;0.40;;;14.70;99.90;;;;;;5033253;28;20186;-73
2023/12/25 05:35:33;;;;;;;1.07;0.33;;;14.70;99.90;;;;;;5034327;28;20611;-74
2023/12/25 05:38:02;;;;;;;2.37;0.53;;;14.70;99.90;;;;;;5042780;28;20209;-73
2023/12/25 05:40:28;;;;;;;1.83;0.40;;;14.70;99.90;;;;;;5034039;28;20654;-74
2023/12/25 05:42:54;;;;;;;1.67;0.40;;;14.60;99.90;;;;;;5041309;28;20592;-73
2023/12/25 05:45:21;;;;;;;1.00;0.40;;;14.60;99.90;;;;;;5033298;28;20586;-73
2023/12/25 05:47:59;;;;;;;1.40;0.50;;;14.50;99.90;;;;;;5033644;28;20689;-75
2023/12/25 05:50:25;;;;;;;1.10;0.30;;;14.50;99.90;;;;;;5015386;28;20594;-74
2023/12/25 05:52:54;;;;;;;1.10;0.40;;;14.50;99.90;;;;;;5015191;28;20584;-72
2023/12/25 05:55:20;;;;;;;1.73;0.50;;;14.40;99.90;;;;;;5023619;28;20616;-73
2023/12/25 05:57:45;;;;;;;1.77;0.30;;;14.40;99.90;;;;;;5015586;28;20595;-73
2023/12/25 06:00:12;;;;;;;1.00;0.30;;;14.30;99.90;;;;;;5015175;28;20671;-73
2023/12/25 06:02:40;;;;;;;1.00;0.30;;;14.30;99.90;;;;;;5014852;28;20186;-73
2023/12/25 06:05:06;;;;;;;1.07;0.37;;;14.20;99.90;;;;;;5015294;28;20669;-73
2023/12/25 06:07:32;;;;;;;1.10;0.40;;;14.20;99.90;;;;;;5015135;28;20292;-72
2023/12/25 06:09:57;;;;;;;1.57;0.37;;;14.10;99.90;;;;;;5015138;28;21251;-72
2023/12/25 06:12:23;;;;;;;1.20;0.40;;;14.10;99.90;;;;;;5022821;28;20188;-72
2023/12/25 06:14:49;;;;;;;1.10;0.30;;;14.10;99.90;;;;;;5038102;28;20208;-72
2023/12/25 06:17:15;;;;;;;1.10;0.40;;;14.10;99.90;;;;;;5036139;28;20248;-72
2023/12/25 06:19:41;;;;;;;1.63;0.40;;;14.00;99.90;;;;;;5048506;28;20182;-72
2023/12/25 06:22:07;;;;;;;1.00;0.40;;;14.00;99.90;;;;;;5030680;28;20606;-72
2023/12/25 06:24:33;;;;;;;1.30;0.40;;;13.90;99.90;;;;;;5032568;28;20612;-72
2023/12/25 06:26:59;;;;;;;2.13;0.40;;;13.90;99.90;;;;;;5039787;28;20713;-72
2023/12/25 06:29:24;;;;;;;1.10;0.40;;;13.80;99.90;;;;;;5033374;28;20205;-72
2023/12/25 06:31:50;;;;;;;1.20;0.40;;;13.80;99.90;;;;;;5051399;28;20260;-72
2023/12/25 06:34:16;;;;;;;1.13;0.40;;;13.80;99.90;;;;;;5051977;28;20196;-73
2023/12/25 06:36:42;;;;;;;1.10;0.40;;;13.70;99.90;;;;;;5026458;28;20666;-72
2023/12/25 06:39:07;;;;;;;1.77;0.40;;;13.70;99.90;;;;;;5026791;28;20643;-72
2023/12/25 06:41:33;;;;;;;1.23;0.40;;;13.70;99.90;;;;;;5051933;28;20177;-72
2023/12/25 06:43:58;;;;;;;1.00;0.40;;;13.70;99.90;;;;;;5033658;28;20200;-72
2023/12/25 06:46:24;;;;;;;1.10;0.40;;;13.60;99.90;;;;;;5034366;28;20221;-72
2023/12/25 06:48:50;;;;;;;1.37;0.50;;;13.60;99.90;;;;;;5052256;28;20181;-71
2023/12/25 06:51:16;;;;;;;1.20;0.40;;;13.50;99.90;;;;;;5034368;28;20730;-72
2023/12/25 06:53:41;;;;;;;1.00;0.30;;;13.50;99.90;;;;;;5051470;28;20204;-71
2023/12/25 06:56:08;;;;;;;1.10;0.40;;;13.50;99.90;;;;;;5033850;28;20626;-71
2023/12/25 06:58:33;;;;;;;1.10;0.40;;;13.50;99.90;;;;;;5043685;28;20165;-71
2023/12/25 07:01:02;;;;;;;1.20;0.40;;;13.50;99.90;;;;;;5051115;28;20596;-71
2023/12/25 07:03:28;;;;;;;1.33;0.60;;;13.50;99.90;;;;;;5051454;28;20539;-72
2023/12/25 07:05:56;;;;;;;1.00;0.40;;;13.50;99.90;;;;;;5027765;28;20616;-73
2023/12/25 07:08:27;;;;;;;1.00;0.40;;;13.50;99.90;;;;;;5048550;28;20639;-74
2023/12/25 07:10:57;;;;;;;1.10;0.40;;;13.50;99.90;;;;;;5042543;28;20592;-73
2023/12/25 07:13:23;;;;;;;1.00;0.30;;;13.40;99.90;;;;;;5051310;28;20594;-73
2023/12/25 07:15:49;;;;;;;1.10;0.40;;;13.40;99.90;;;;;;5051557;28;20615;-73
2023/12/25 07:18:14;;;;;;;1.10;0.40;;;13.50;99.90;;;;;;5050476;28;20673;-73
2023/12/25 07:20:40;;;;;;;1.63;0.50;;;13.40;99.90;;;;;;5051481;28;20196;-73
2023/12/25 07:23:06;;;;;;;1.20;0.40;;;13.50;99.90;;;;;;5043714;28;20409;-73
2023/12/25 07:25:32;;;;;;;1.10;0.40;;;13.50;99.90;;;;;;5024717;28;22381;-73
2023/12/25 07:27:57;;;;;;;1.60;0.40;;;13.50;99.90;;;;;;5049863;28;20296;-73
2023/12/25 07:30:23;;;;;;;1.00;0.30;;;13.50;99.90;;;;;;5050755;28;20188;-73
2023/12/25 07:32:49;;;;;;;1.67;0.40;;;13.50;99.90;;;;;;5028691;28;20627;-73
2023/12/25 07:35:15;;;;;;;1.27;0.40;;;13.50;99.90;;;;;;5047854;28;20200;-72
2023/12/25 07:37:40;;;;;;;1.30;0.40;;;13.40;99.90;;;;;;5033428;28;21020;-73
2023/12/25 07:40:07;;;;;;;1.10;0.40;;;13.50;99.90;;;;;;5051265;28;20184;-73
2023/12/25 07:42:32;;;;;;;1.00;0.40;;;13.50;99.90;;;;;;5049290;28;20181;-73
2023/12/25 07:44:58;;;;;;;1.10;0.40;;;13.50;99.90;;;;;;5049666;28;21280;-73
2023/12/25 07:47:23;;;;;;;1.10;0.40;;;13.50;99.90;;;;;;5051040;28;20633;-73
2023/12/25 07:49:50;;;;;;;1.10;0.40;;;13.50;99.90;;;;;;5051006;28;20218;-71
2023/12/25 07:52:17;;;;;;;1.10;0.40;;;13.50;99.90;;;;;;5032550;28;20193;-73
2023/12/25 07:54:42;;;;;;;1.00;0.40;;;13.50;99.90;;;;;;5049408;28;20661;-73
2023/12/25 07:57:08;;;;;;;1.23;0.50;;;13.50;99.90;;;;;;5025461;28;20280;-73
2023/12/25 07:59:34;;;;;;;1.00;0.40;;;13.50;99.90;;;;;;5032293;28;20200;-73
2023/12/25 08:01:59;;;;;;;1.23;0.30;;;13.50;99.90;;;;;;5032345;28;20184;-75
2023/12/25 08:04:25;;;;;;;1.10;0.40;;;13.60;99.90;;;;;;5050321;28;20192;-72
2023/12/25 08:06:51;;;;;;;1.30;0.40;;;13.60;99.90;;;;;;5049184;28;20299;-72
2023/12/25 08:09:16;;;;;;;1.07;0.40;;;13.60;99.90;;;;;;5050514;28;20175;-72
2023/12/25 08:11:42;;;;;;;1.00;0.40;;;13.60;99.90;;;;;;5042454;28;20169;-72
2023/12/25 08:14:08;;;;;;;1.00;0.40;;;13.60;99.90;;;;;;5032238;28;20264;-72
2023/12/25 08:16:34;;;;;;;1.80;0.40;;;13.60;99.90;;;;;;5032707;28;21188;-72
2023/12/25 08:18:59;;;;;;;1.10;0.40;;;13.60;99.90;;;;;;5049362;28;20271;-72
2023/12/25 08:21:25;;;;;;;1.37;0.40;;;13.70;99.90;;;;;;5050557;28;20200;-72
2023/12/25 08:23:51;;;;;;;1.00;0.40;;;13.60;99.90;;;;;;5048759;28;20639;-72
2023/12/25 08:26:17;;;;;;;1.27;0.37;;;13.70;99.90;;;;;;5042489;28;20190;-72
2023/12/25 08:28:42;;;;;;;1.67;0.40;;;13.70;99.90;;;;;;5038415;28;21141;-73
2023/12/25 08:31:08;;;;;;;1.00;0.40;;;13.70;99.90;;;;;;5030693;28;20568;-72
2023/12/25 08:33:35;;;;;;;1.10;0.40;;;13.70;99.90;;;;;;5020151;28;20185;-73
2023/12/25 08:36:01;;;;;;;1.07;0.40;;;13.70;99.90;;;;;;5030327;28;20626;-73
2023/12/25 08:38:26;;;;;;;1.10;0.50;;;13.70;99.90;;;;;;5023435;28;20585;-73
2023/12/25 08:40:53;;;;;;;1.50;0.50;;;13.70;99.90;;;;;;5019512;28;20177;-72
2023/12/25 08:43:18;;;;;;;1.20;0.40;;;13.80;99.90;;;;;;5016675;28;20650;-72
2023/12/25 08:45:44;;;;;;;1.30;0.40;;;13.80;99.90;;;;;;5035632;28;20616;-73
2023/12/25 08:48:10;;;;;;;1.03;0.37;;;13.80;99.90;;;;;;5026857;28;20699;-73
2023/12/25 08:50:35;;;;;;;1.10;0.40;;;13.90;99.90;;;;;;5030743;28;20173;-72
2023/12/25 08:53:02;;;;;;;1.20;0.40;;;13.90;99.90;;;;;;5034991;28;20173;-72
2023/12/25 08:55:27;;;;;;;1.10;0.40;;;13.90;99.90;;;;;;5041330;28;20556;-72
2023/12/25 08:57:53;;;;;;;1.10;0.40;;;13.90;99.90;;;;;;5033721;28;20592;-72
2023/12/25 09:00:20;;;;;;;1.20;0.50;;;13.90;99.90;;;;;;5012655;28;20256;-73
2023/12/25 09:02:46;;;;;;;1.07;0.40;;;14.00;99.90;;;;;;5038088;28;20193;-73
2023/12/25 09:05:12;;;;;;;1.10;0.40;;;14.00;99.90;;;;;;5039957;28;20783;-72
2023/12/25 09:07:37;;;;;;;1.13;0.40;;;14.00;99.90;;;;;;5037459;28;20719;-72
2023/12/25 09:10:06;;;;;;;1.17;0.40;;;14.10;99.90;;;;;;5033382;28;20177;-73
2023/12/25 09:12:33;;;;;;;1.10;0.40;;;14.10;99.90;;;;;;5024382;28;20181;-73
2023/12/25 09:14:58;;;;;;;1.10;0.40;;;14.10;99.90;;;;;;5024111;28;20623;-73
2023/12/25 09:17:24;;;;;;;1.10;0.40;;;14.20;99.90;;;;;;5043892;28;20595;-73
2023/12/25 09:19:50;;;;;;;1.10;0.40;;;14.20;99.90;;;;;;5041196;28;20196;-73
2023/12/25 09:22:17;;;;;;;1.10;0.40;;;14.20;99.90;;;;;;5030665;28;20714;-73
2023/12/25 09:24:44;;;;;;;1.77;0.40;;;14.20;99.90;;;;;;5015438;28;20624;-73
2023/12/25 09:27:10;;;;;;;1.40;0.50;;;14.30;99.90;;;;;;5039513;28;20631;-72
2023/12/25 09:29:36;;;;;;;2.80;0.40;;;14.30;99.90;;;;;;5029849;28;20623;-73
2023/12/25 09:32:03;;;;;;;1.10;0.30;;;14.30;99.90;;;;;;5047479;28;20587;-73
2023/12/25 09:34:29;;;;;;;1.00;0.40;;;14.30;99.90;;;;;;5052173;28;20635;-73
2023/12/25 09:36:56;;;;;;;1.40;0.40;;;14.30;99.90;;;;;;5039145;28;20651;-72
2023/12/25 09:39:22;;;;;;;1.33;0.40;;;14.30;99.90;;;;;;5041758;28;20585;-73
2023/12/25 09:41:48;;;;;;;1.20;0.40;;;14.40;99.90;;;;;;5036014;28;20571;-73
2023/12/25 09:44:14;;;;;;;1.10;0.40;;;14.40;99.90;;;;;;5011177;28;20186;-73
2023/12/25 09:46:40;;;;;;;1.10;0.40;;;14.30;99.90;;;;;;5033242;28;20635;-72
2023/12/25 09:49:06;;;;;;;1.30;0.53;;;14.40;99.90;;;;;;5015670;28;20596;-73
2023/12/25 09:51:33;;;;;;;1.10;0.50;;;14.40;99.90;;;;;;5050018;28;20712;-73
2023/12/25 09:53:59;;;;;;;1.57;0.50;;;14.40;99.90;;;;;;5051705;28;20618;-73
2023/12/25 09:56:27;;;;;;;1.20;0.50;;;14.50;99.90;;;;;;5052712;28;20607;-73
2023/12/25 09:58:54;;;;;;;1.40;0.60;;;14.50;99.90;;;;;;4999424;28;21162;-74
2023/12/25 10:01:21;;;;;;;1.20;0.50;;;14.50;99.90;;;;;;5031986;28;20611;-74
2023/12/25 10:03:47;;;;;;;1.60;0.60;;;14.50;99.90;;;;;;5049515;28;20985;-74
2023/12/25 10:06:13;;;;;;;1.10;0.40;;;14.50;99.90;;;;;;5030203;28;20642;-74
2023/12/25 10:08:40;;;;;;;1.30;0.50;;;14.60;99.90;;;;;;5010685;28;20631;-74
2023/12/25 10:11:13;;;;;;;1.20;0.50;;;14.60;99.90;;;;;;5045809;28;20620;-74
2023/12/25 10:13:39;;;;;;;1.13;0.40;;;14.60;99.90;;;;;;5033372;28;20995;-73
2023/12/25 10:16:06;;;;;;;1.50;0.50;;;14.60;99.90;;;;;;5052991;28;20649;-74
2023/12/25 10:18:35;;;;;;;1.30;0.50;;;14.60;99.90;;;;;;5025725;28;21133;-74
2023/12/25 10:21:04;;;;;;;1.07;0.40;;;14.60;99.90;;;;;;5039870;28;20596;-74
2023/12/25 10:23:30;;;;;;;1.30;0.40;;;14.60;99.90;;;;;;5049692;28;20584;-74
2023/12/25 10:26:04;;;;;;;3.10;0.47;;;14.70;99.90;;;;;;5052960;28;20619;-74
2023/12/25 10:28:33;;;;;;;1.30;0.40;;;14.70;99.90;;;;;;5026613;28;21307;-74
2023/12/25 10:31:02;;;;;;;1.00;0.40;;;14.70;99.90;;;;;;5047741;28;20610;-72
2023/12/25 10:33:28;;;;;;;1.10;0.40;;;14.70;99.90;;;;;;5031450;28;20637;-73
2023/12/25 10:36:07;;;;;;;1.10;0.40;;;14.80;99.90;;;;;;5029597;28;20620;-73
2023/12/25 10:38:38;;;;;;;1.10;0.40;;;14.80;99.90;;;;;;5033047;28;20587;-72
2023/12/25 10:41:27;;;;;;;1.10;0.40;;;14.80;99.90;;;;;;5044981;28;20600;-74
2023/12/25 10:43:57;;;;;;;1.23;0.40;;;14.80;99.90;;;;;;5039622;28;20612;-74
2023/12/25 10:46:25;;;;;;;1.40;0.50;;;14.90;99.90;;;;;;5025226;28;20616;-74
2023/12/25 10:48:53;;;;;;;1.27;0.40;;;14.80;99.90;;;;;;5037345;28;20588;-74
2023/12/25 10:51:31;;;;;;;1.10;0.40;;;14.90;99.90;;;;;;5033073;28;20607;-74
2023/12/25 10:54:00;;;;;;;1.17;0.40;;;14.90;99.90;;;;;;5023654;28;20974;-74
2023/12/25 10:56:27;;;;;;;1.10;0.40;;;15.00;99.90;;;;;;5031359;28;20615;-73
2023/12/25 10:58:56;;;;;;;1.30;0.60;;;15.00;99.90;;;;;;5026286;28;20615;-74
2023/12/25 11:01:24;;;;;;;1.30;0.50;;;15.00;99.90;;;;;;5051111;28;20580;-74
2023/12/25 11:03:53;;;;;;;1.20;0.57;;;15.00;99.90;;;;;;5051492;28;20587;-73
2023/12/25 11:06:20;;;;;;;1.57;0.43;;;15.00;99.90;;;;;;5043075;28;20659;-73
2023/12/25 11:08:46;;;;;;;2.00;0.87;;;15.00;99.90;;;;;;5050115;28;20657;-74
2023/12/25 11:11:13;;;;;;;1.10;0.40;;;15.10;99.90;;;;;;5051752;28;20669;-73
2023/12/25 11:13:42;;;;;;;1.20;0.40;;;15.10;99.90;;;;;;5051496;28;20629;-74
2023/12/25 11:16:09;;;;;;;1.30;0.77;;;15.10;99.90;;;;;;5042331;28;20611;-73
2023/12/25 11:18:37;;;;;;;1.10;0.40;;;15.10;99.90;;;;;;5051358;28;20588;-73
2023/12/25 11:21:08;;;;;;;1.07;0.33;;;15.10;99.90;;;;;;5050503;28;20615;-73
2023/12/25 11:23:42;;;;;;;1.20;0.40;;;15.10;99.90;;;;;;5016628;28;20619;-73
2023/12/25 11:26:12;;;;;;;1.53;0.60;;;15.20;99.90;;;;;;5043817;28;20615;-73
2023/12/25 11:28:41;;;;;;;1.20;0.40;;;15.20;99.90;;;;;;5034944;28;20679;-73
2023/12/25 11:31:07;;;;;;;1.20;0.50;;;15.20;99.90;;;;;;5033574;28;20834;-73
2023/12/25 11:33:46;;;;;;;1.10;0.40;;;15.20;99.90;;;;;;5016156;28;21150;-73
2023/12/25 11:36:17;;;;;;;1.20;0.50;;;15.30;99.90;;;;;;5025656;28;20261;-73
2023/12/25 11:38:57;;;;;;;1.10;0.40;;;15.30;99.90;;;;;;5038049;28;21016;-73
2023/12/25 11:41:23;;;;;;;1.20;0.50;;;15.30;99.90;;;;;;5023978;28;20665;-74
2023/12/25 11:43:49;;;;;;;1.17;0.50;;;15.30;99.90;;;;;;5037765;28;20627;-73
2023/12/25 11:46:18;;;;;;;1.50;0.40;;;15.30;99.90;;;;;;5021195;28;20627;-73
2023/12/25 11:48:45;;;;;;;1.20;0.40;;;15.30;99.90;;;;;;5038202;28;20604;-73
2023/12/25 11:51:26;;;;;;;1.30;0.60;;;15.30;99.90;;;;;;5028070;28;20687;-73
2023/12/25 11:53:56;;;;;;;1.33;0.40;;;15.40;99.90;;;;;;5036153;28;20595;-73
2023/12/25 11:56:21;;;;;;;1.17;0.40;;;15.40;99.90;;;;;;5027792;28;20624;-73
2023/12/25 11:58:47;;;;;;;1.10;0.40;;;15.40;99.90;;;;;;5024196;28;20991;-73
2023/12/25 12:01:17;;;;;;;1.10;0.40;;;15.40;99.90;;;;;;5015762;28;20219;-73
2023/12/25 12:03:49;;;;;;;1.30;0.60;;;15.50;99.90;;;;;;5044419;28;20622;-73
2023/12/25 12:06:19;;;;;;;3.70;1.93;;;15.50;99.90;;;;;;5003317;28;20654;-73
2023/12/25 12:08:47;;;;;;;4.10;2.30;;;15.50;99.90;;;;;;5021529;28;20674;-73
2023/12/25 12:11:14;;;;;;;7.43;4.43;;;15.50;99.90;;;;;;5032050;28;20584;-74
2023/12/25 12:13:40;;;;;;;2.60;1.40;;;15.50;99.90;;;;;;5049829;28;21132;-74
2023/12/25 12:16:07;;;;;;;1.60;0.70;;;15.50;99.90;;;;;;5050518;28;20602;-74
2023/12/25 12:18:33;;;;;;;1.30;0.60;;;15.50;99.90;;;;;;5050545;28;20607;-74
2023/12/25 12:20:59;;;;;;;1.60;0.90;;;15.50;99.90;;;;;;5041560;28;20584;-74
2023/12/25 12:23:28;;;;;;;1.57;0.80;;;15.60;99.90;;;;;;5036452;28;21214;-74
2023/12/25 12:25:54;;;;;;;1.73;1.00;;;15.60;99.90;;;;;;5032549;28;20619;-74
2023/12/25 12:28:20;;;;;;;1.50;0.80;;;15.60;99.90;;;;;;5042635;28;21434;-74
2023/12/25 12:30:46;;;;;;;1.70;1.00;;;15.60;99.90;;;;;;5031552;28;20580;-73
2023/12/25 12:33:16;;;;;;;3.93;2.33;;;15.60;99.90;;;;;;5048611;28;20587;-73
2023/12/25 12:35:42;;;;;;;3.90;2.23;;;15.70;99.90;;;;;;5049123;28;20633;-74
2023/12/25 12:38:12;;;;;;;2.07;1.20;;;15.70;99.90;;;;;;5045603;28;20600;-74
2023/12/25 12:40:38;;;;;;;2.27;1.20;;;15.70;99.90;;;;;;5029073;28;20176;-74
2023/12/25 12:43:04;;;;;;;1.70;1.07;;;15.70;99.90;;;;;;5042631;28;20742;-74
2023/12/25 12:45:30;;;;;;;1.53;0.80;;;15.70;99.90;;;;;;5032452;28;20643;-74